sensor_id;sensor_type;location;lat;lon;timestamp;temperature;humidity
78694;SHT31;68029;51.978;5.646;2023-07-31T00:00:14;16.4;85.7
78694;SHT31;68029;51.978;5.646;2023-07-31T00:02:42;16.5;85.6
78694;SHT31;68029;51.978;5.646;2023-07-31T00:05:11;16.5;85.7
78694;SHT31;68029;51.978;5.646;2023-07-31T00:07:41;16.5;85.6
78694;SHT31;68029;51.978;5.646;2023-07-31T00:10:11;16.5;85.6
78694;SHT31;68029;51.978;5.646;2023-07-31T00:12:42;16.5;85.7
78694;SHT31;68029;51.978;5.646;2023-07-31T00:15:13;16.5;85.8
78694;SHT31;68029;51.978;5.646;2023-07-31T00:17:44;16.6;85.8
78694;SHT31;68029;51.978;5.646;2023-07-31T00:20:13;16.6;86.0
78694;SHT31;68029;51.978;5.646;2023-07-31T00:22:42;16.6;86.0
78694;SHT31;68029;51.978;5.646;2023-07-31T00:25:10;16.6;86.1
78694;SHT31;68029;51.978;5.646;2023-07-31T00:27:39;16.7;86.1
78694;SHT31;68029;51.978;5.646;2023-07-31T00:30:11;16.7;86.2
78694;SHT31;68029;51.978;5.646;2023-07-31T00:32:41;16.7;86.4
78694;SHT31;68029;51.978;5.646;2023-07-31T00:35:10;16.8;86.7
78694;SHT31;68029;51.978;5.646;2023-07-31T00:37:38;16.8;86.9
78694;SHT31;68029;51.978;5.646;2023-07-31T00:40:08;16.9;87.0
78694;SHT31;68029;51.978;5.646;2023-07-31T00:42:37;16.9;86.9
78694;SHT31;68029;51.978;5.646;2023-07-31T00:45:09;17.0;87.1
78694;SHT31;68029;51.978;5.646;2023-07-31T00:47:38;17.1;87.1
78694;SHT31;68029;51.978;5.646;2023-07-31T00:50:08;17.1;87.1
78694;SHT31;68029;51.978;5.646;2023-07-31T00:52:37;17.2;86.9
78694;SHT31;68029;51.978;5.646;2023-07-31T00:55:06;17.3;86.8
78694;SHT31;68029;51.978;5.646;2023-07-31T00:57:36;17.3;86.7
78694;SHT31;68029;51.978;5.646;2023-07-31T01:00:07;17.4;86.4
78694;SHT31;68029;51.978;5.646;2023-07-31T01:02:37;17.5;86.0
78694;SHT31;68029;51.978;5.646;2023-07-31T01:05:07;17.5;85.6
78694;SHT31;68029;51.978;5.646;2023-07-31T01:07:42;17.6;85.5
78694;SHT31;68029;51.978;5.646;2023-07-31T01:10:18;17.6;85.1
78694;SHT31;68029;51.978;5.646;2023-07-31T01:12:51;17.7;84.8
78694;SHT31;68029;51.978;5.646;2023-07-31T01:15:21;17.7;84.6
78694;SHT31;68029;51.978;5.646;2023-07-31T01:17:50;17.7;84.2
78694;SHT31;68029;51.978;5.646;2023-07-31T01:20:22;17.8;83.9
78694;SHT31;68029;51.978;5.646;2023-07-31T01:23:20;17.8;84.1
78694;SHT31;68029;51.978;5.646;2023-07-31T01:25:55;17.8;83.7
78694;SHT31;68029;51.978;5.646;2023-07-31T01:28:35;17.9;83.5
78694;SHT31;68029;51.978;5.646;2023-07-31T01:31:07;17.9;83.4
78694;SHT31;68029;51.978;5.646;2023-07-31T01:33:38;17.9;83.4
78694;SHT31;68029;51.978;5.646;2023-07-31T01:36:08;18.0;83.0
78694;SHT31;68029;51.978;5.646;2023-07-31T01:38:37;18.0;82.8
78694;SHT31;68029;51.978;5.646;2023-07-31T01:41:06;18.0;82.6
78694;SHT31;68029;51.978;5.646;2023-07-31T01:43:34;18.0;82.4
78694;SHT31;68029;51.978;5.646;2023-07-31T01:46:03;18.1;82.6
78694;SHT31;68029;51.978;5.646;2023-07-31T01:48:31;18.1;81.9
78694;SHT31;68029;51.978;5.646;2023-07-31T01:51:05;18.1;81.7
78694;SHT31;68029;51.978;5.646;2023-07-31T01:53:33;18.1;81.7
78694;SHT31;68029;51.978;5.646;2023-07-31T01:56:05;18.1;81.4
78694;SHT31;68029;51.978;5.646;2023-07-31T01:58:33;18.1;81.6
78694;SHT31;68029;51.978;5.646;2023-07-31T02:01:01;18.2;81.5
78694;SHT31;68029;51.978;5.646;2023-07-31T02:03:30;18.2;81.6
78694;SHT31;68029;51.978;5.646;2023-07-31T02:05:59;18.2;81.7
78694;SHT31;68029;51.978;5.646;2023-07-31T02:08:29;18.2;81.7
78694;SHT31;68029;51.978;5.646;2023-07-31T02:10:58;18.2;81.8
78694;SHT31;68029;51.978;5.646;2023-07-31T02:13:26;18.2;82.0
78694;SHT31;68029;51.978;5.646;2023-07-31T02:15:55;18.2;81.8
78694;SHT31;68029;51.978;5.646;2023-07-31T02:18:24;18.2;81.6
78694;SHT31;68029;51.978;5.646;2023-07-31T02:20:52;18.1;81.7
78694;SHT31;68029;51.978;5.646;2023-07-31T02:23:21;18.1;82.1
78694;SHT31;68029;51.978;5.646;2023-07-31T02:25:49;18.1;82.1
78694;SHT31;68029;51.978;5.646;2023-07-31T02:28:18;18.1;82.1
78694;SHT31;68029;51.978;5.646;2023-07-31T02:30:46;18.1;82.1
78694;SHT31;68029;51.978;5.646;2023-07-31T02:33:15;18.1;82.2
78694;SHT31;68029;51.978;5.646;2023-07-31T02:35:44;18.1;82.2
78694;SHT31;68029;51.978;5.646;2023-07-31T02:38:13;18.1;82.1
78694;SHT31;68029;51.978;5.646;2023-07-31T02:40:42;18.1;81.9
78694;SHT31;68029;51.978;5.646;2023-07-31T02:43:10;18.0;81.8
78694;SHT31;68029;51.978;5.646;2023-07-31T02:45:40;18.0;81.8
78694;SHT31;68029;51.978;5.646;2023-07-31T02:48:09;18.0;81.7
78694;SHT31;68029;51.978;5.646;2023-07-31T02:50:37;18.0;81.5
78694;SHT31;68029;51.978;5.646;2023-07-31T02:53:06;18.0;81.7
78694;SHT31;68029;51.978;5.646;2023-07-31T02:55:35;18.0;81.3
78694;SHT31;68029;51.978;5.646;2023-07-31T02:58:03;18.0;80.9
78694;SHT31;68029;51.978;5.646;2023-07-31T03:00:32;18.0;81.0
78694;SHT31;68029;51.978;5.646;2023-07-31T03:03:00;18.0;80.8
78694;SHT31;68029;51.978;5.646;2023-07-31T03:05:29;18.0;81.0
78694;SHT31;68029;51.978;5.646;2023-07-31T03:07:57;18.0;80.6
78694;SHT31;68029;51.978;5.646;2023-07-31T03:10:26;18.0;80.8
78694;SHT31;68029;51.978;5.646;2023-07-31T03:12:55;18.0;80.7
78694;SHT31;68029;51.978;5.646;2023-07-31T03:15:23;18.0;80.5
78694;SHT31;68029;51.978;5.646;2023-07-31T03:17:52;18.0;80.4
78694;SHT31;68029;51.978;5.646;2023-07-31T03:20:20;18.0;80.4
78694;SHT31;68029;51.978;5.646;2023-07-31T03:22:49;18.0;80.2
78694;SHT31;68029;51.978;5.646;2023-07-31T03:25:17;18.0;80.3
78694;SHT31;68029;51.978;5.646;2023-07-31T03:27:46;18.0;79.8
78694;SHT31;68029;51.978;5.646;2023-07-31T03:30:14;18.0;79.4
78694;SHT31;68029;51.978;5.646;2023-07-31T03:32:43;18.0;79.5
78694;SHT31;68029;51.978;5.646;2023-07-31T03:35:12;18.0;79.3
78694;SHT31;68029;51.978;5.646;2023-07-31T03:37:40;18.0;79.2
78694;SHT31;68029;51.978;5.646;2023-07-31T03:40:10;18.0;78.8
78694;SHT31;68029;51.978;5.646;2023-07-31T03:42:39;18.0;78.8
78694;SHT31;68029;51.978;5.646;2023-07-31T03:45:11;18.0;78.7
78694;SHT31;68029;51.978;5.646;2023-07-31T03:47:39;18.0;78.7
78694;SHT31;68029;51.978;5.646;2023-07-31T03:50:09;18.0;78.7
78694;SHT31;68029;51.978;5.646;2023-07-31T03:52:38;18.1;78.8
78694;SHT31;68029;51.978;5.646;2023-07-31T03:55:07;18.1;78.7
78694;SHT31;68029;51.978;5.646;2023-07-31T03:57:36;18.1;78.7
78694;SHT31;68029;51.978;5.646;2023-07-31T04:00:06;18.1;78.6
78694;SHT31;68029;51.978;5.646;2023-07-31T04:02:35;18.1;78.2
78694;SHT31;68029;51.978;5.646;2023-07-31T04:05:03;18.1;77.8
78694;SHT31;68029;51.978;5.646;2023-07-31T04:07:32;18.1;77.7
78694;SHT31;68029;51.978;5.646;2023-07-31T04:10:01;18.0;77.5
78694;SHT31;68029;51.978;5.646;2023-07-31T04:12:30;18.0;77.8
78694;SHT31;68029;51.978;5.646;2023-07-31T04:14:59;18.0;77.7
78694;SHT31;68029;51.978;5.646;2023-07-31T04:17:27;18.0;77.5
78694;SHT31;68029;51.978;5.646;2023-07-31T04:19:56;18.0;77.7
78694;SHT31;68029;51.978;5.646;2023-07-31T04:22:24;18.0;77.7
78694;SHT31;68029;51.978;5.646;2023-07-31T04:24:53;18.0;77.5
78694;SHT31;68029;51.978;5.646;2023-07-31T04:27:22;18.0;77.3
78694;SHT31;68029;51.978;5.646;2023-07-31T04:29:50;18.0;77.3
78694;SHT31;68029;51.978;5.646;2023-07-31T04:32:21;18.0;77.5
78694;SHT31;68029;51.978;5.646;2023-07-31T04:34:49;18.0;77.4
78694;SHT31;68029;51.978;5.646;2023-07-31T04:37:18;18.0;77.7
78694;SHT31;68029;51.978;5.646;2023-07-31T04:39:46;18.0;77.2
78694;SHT31;68029;51.978;5.646;2023-07-31T04:42:15;18.0;77.3
78694;SHT31;68029;51.978;5.646;2023-07-31T04:44:43;18.0;77.0
78694;SHT31;68029;51.978;5.646;2023-07-31T04:47:12;18.0;77.3
78694;SHT31;68029;51.978;5.646;2023-07-31T04:49:40;18.0;77.0
78694;SHT31;68029;51.978;5.646;2023-07-31T04:52:09;18.1;77.1
78694;SHT31;68029;51.978;5.646;2023-07-31T04:54:38;18.1;77.1
78694;SHT31;68029;51.978;5.646;2023-07-31T04:57:07;18.1;77.2
78694;SHT31;68029;51.978;5.646;2023-07-31T04:59:35;18.1;77.2
78694;SHT31;68029;51.978;5.646;2023-07-31T05:02:04;18.1;77.6
78694;SHT31;68029;51.978;5.646;2023-07-31T05:04:33;18.1;77.4
78694;SHT31;68029;51.978;5.646;2023-07-31T05:07:02;18.1;77.2
78694;SHT31;68029;51.978;5.646;2023-07-31T05:09:30;18.1;77.1
78694;SHT31;68029;51.978;5.646;2023-07-31T05:11:59;18.1;77.1
78694;SHT31;68029;51.978;5.646;2023-07-31T05:14:27;18.1;77.3
78694;SHT31;68029;51.978;5.646;2023-07-31T05:16:55;18.1;77.6
78694;SHT31;68029;51.978;5.646;2023-07-31T05:19:24;18.1;77.6
78694;SHT31;68029;51.978;5.646;2023-07-31T05:21:52;18.1;77.6
78694;SHT31;68029;51.978;5.646;2023-07-31T05:24:21;18.2;77.9
78694;SHT31;68029;51.978;5.646;2023-07-31T05:26:50;18.1;78.1
78694;SHT31;68029;51.978;5.646;2023-07-31T05:29:18;18.1;78.5
78694;SHT31;68029;51.978;5.646;2023-07-31T05:33:49;18.4;77.2
78694;SHT31;68029;51.978;5.646;2023-07-31T05:36:18;18.3;78.2
78694;SHT31;68029;51.978;5.646;2023-07-31T05:39:54;18.2;78.8
78694;SHT31;68029;51.978;5.646;2023-07-31T05:42:22;18.1;79.5
78694;SHT31;68029;51.978;5.646;2023-07-31T05:44:52;18.1;79.6
78694;SHT31;68029;51.978;5.646;2023-07-31T05:47:20;18.0;80.1
78694;SHT31;68029;51.978;5.646;2023-07-31T05:49:50;18.0;80.3
78694;SHT31;68029;51.978;5.646;2023-07-31T05:52:20;17.9;80.6
78694;SHT31;68029;51.978;5.646;2023-07-31T05:54:48;17.8;81.1
78694;SHT31;68029;51.978;5.646;2023-07-31T05:57:17;17.7;81.7
78694;SHT31;68029;51.978;5.646;2023-07-31T05:59:47;17.6;82.5
78694;SHT31;68029;51.978;5.646;2023-07-31T06:02:16;17.5;82.9
78694;SHT31;68029;51.978;5.646;2023-07-31T06:04:45;17.4;83.4
78694;SHT31;68029;51.978;5.646;2023-07-31T06:07:13;17.4;83.9
78694;SHT31;68029;51.978;5.646;2023-07-31T06:09:42;17.3;84.4
78694;SHT31;68029;51.978;5.646;2023-07-31T06:12:11;17.3;84.8
78694;SHT31;68029;51.978;5.646;2023-07-31T06:14:40;17.2;84.9
78694;SHT31;68029;51.978;5.646;2023-07-31T06:17:09;17.2;85.4
78694;SHT31;68029;51.978;5.646;2023-07-31T06:19:37;17.1;85.7
78694;SHT31;68029;51.978;5.646;2023-07-31T06:22:06;17.1;86.1
78694;SHT31;68029;51.978;5.646;2023-07-31T06:24:35;17.1;86.4
78694;SHT31;68029;51.978;5.646;2023-07-31T06:27:04;17.1;86.5
78694;SHT31;68029;51.978;5.646;2023-07-31T06:29:33;17.1;86.6
78694;SHT31;68029;51.978;5.646;2023-07-31T06:32:02;17.1;86.8
78694;SHT31;68029;51.978;5.646;2023-07-31T06:34:30;17.1;86.9
78694;SHT31;68029;51.978;5.646;2023-07-31T06:36:59;17.1;87.0
78694;SHT31;68029;51.978;5.646;2023-07-31T06:39:27;17.2;87.1
78694;SHT31;68029;51.978;5.646;2023-07-31T06:41:56;17.2;87.0
78694;SHT31;68029;51.978;5.646;2023-07-31T06:44:24;17.2;87.1
78694;SHT31;68029;51.978;5.646;2023-07-31T06:46:53;17.2;86.8
78694;SHT31;68029;51.978;5.646;2023-07-31T06:49:21;17.3;86.5
78694;SHT31;68029;51.978;5.646;2023-07-31T06:51:50;17.3;86.6
78694;SHT31;68029;51.978;5.646;2023-07-31T06:54:18;17.3;86.7
78694;SHT31;68029;51.978;5.646;2023-07-31T06:56:48;17.4;86.6
78694;SHT31;68029;51.978;5.646;2023-07-31T06:59:16;17.4;86.7
78694;SHT31;68029;51.978;5.646;2023-07-31T07:01:45;17.4;86.6
78694;SHT31;68029;51.978;5.646;2023-07-31T07:04:14;17.4;86.7
78694;SHT31;68029;51.978;5.646;2023-07-31T07:06:42;17.5;86.7
78694;SHT31;68029;51.978;5.646;2023-07-31T07:09:11;17.5;86.7
78694;SHT31;68029;51.978;5.646;2023-07-31T07:11:40;17.5;86.6
78694;SHT31;68029;51.978;5.646;2023-07-31T07:14:09;17.6;86.9
78694;SHT31;68029;51.978;5.646;2023-07-31T07:16:40;17.6;86.8
78694;SHT31;68029;51.978;5.646;2023-07-31T07:19:09;17.6;86.5
78694;SHT31;68029;51.978;5.646;2023-07-31T07:21:38;17.7;86.3
78694;SHT31;68029;51.978;5.646;2023-07-31T07:24:06;17.7;86.6
78694;SHT31;68029;51.978;5.646;2023-07-31T07:26:35;17.7;86.2
78694;SHT31;68029;51.978;5.646;2023-07-31T07:29:03;17.8;86.2
78694;SHT31;68029;51.978;5.646;2023-07-31T07:31:34;17.8;86.2
78694;SHT31;68029;51.978;5.646;2023-07-31T07:34:02;17.8;86.2
78694;SHT31;68029;51.978;5.646;2023-07-31T07:36:31;17.8;85.9
78694;SHT31;68029;51.978;5.646;2023-07-31T07:39:01;17.8;86.0
78694;SHT31;68029;51.978;5.646;2023-07-31T07:41:29;17.8;85.8
78694;SHT31;68029;51.978;5.646;2023-07-31T07:43:58;17.8;85.4
78694;SHT31;68029;51.978;5.646;2023-07-31T07:46:26;17.8;85.6
78694;SHT31;68029;51.978;5.646;2023-07-31T07:48:55;17.8;85.8
78694;SHT31;68029;51.978;5.646;2023-07-31T07:51:23;17.8;85.9
78694;SHT31;68029;51.978;5.646;2023-07-31T07:53:52;17.9;86.1
78694;SHT31;68029;51.978;5.646;2023-07-31T07:56:21;17.9;86.1
78694;SHT31;68029;51.978;5.646;2023-07-31T07:58:50;17.9;85.9
78694;SHT31;68029;51.978;5.646;2023-07-31T08:01:21;17.9;85.9
78694;SHT31;68029;51.978;5.646;2023-07-31T08:03:50;18.0;85.7
78694;SHT31;68029;51.978;5.646;2023-07-31T08:06:20;18.0;85.9
78694;SHT31;68029;51.978;5.646;2023-07-31T08:08:51;18.0;85.5
78694;SHT31;68029;51.978;5.646;2023-07-31T08:11:19;18.0;85.7
78694;SHT31;68029;51.978;5.646;2023-07-31T08:13:50;18.0;85.7
78694;SHT31;68029;51.978;5.646;2023-07-31T08:16:18;18.1;85.9
78694;SHT31;68029;51.978;5.646;2023-07-31T08:18:47;18.1;85.6
78694;SHT31;68029;51.978;5.646;2023-07-31T08:21:15;18.1;85.6
78694;SHT31;68029;51.978;5.646;2023-07-31T08:23:44;18.2;85.9
78694;SHT31;68029;51.978;5.646;2023-07-31T08:26:16;18.2;85.7
78694;SHT31;68029;51.978;5.646;2023-07-31T08:28:45;18.3;85.3
78694;SHT31;68029;51.978;5.646;2023-07-31T08:31:14;18.3;85.0
78694;SHT31;68029;51.978;5.646;2023-07-31T08:33:43;18.3;84.8
78694;SHT31;68029;51.978;5.646;2023-07-31T08:36:12;18.3;85.1
78694;SHT31;68029;51.978;5.646;2023-07-31T08:38:40;18.4;85.3
78694;SHT31;68029;51.978;5.646;2023-07-31T08:41:09;18.4;85.3
78694;SHT31;68029;51.978;5.646;2023-07-31T08:43:40;18.4;85.4
78694;SHT31;68029;51.978;5.646;2023-07-31T08:46:10;18.5;85.2
78694;SHT31;68029;51.978;5.646;2023-07-31T08:48:41;18.5;85.0
78694;SHT31;68029;51.978;5.646;2023-07-31T08:51:11;18.5;84.6
78694;SHT31;68029;51.978;5.646;2023-07-31T08:53:39;18.5;84.6
78694;SHT31;68029;51.978;5.646;2023-07-31T08:56:10;18.6;84.6
78694;SHT31;68029;51.978;5.646;2023-07-31T08:58:40;18.6;84.6
78694;SHT31;68029;51.978;5.646;2023-07-31T09:01:13;18.6;84.7
78694;SHT31;68029;51.978;5.646;2023-07-31T09:03:44;18.6;84.8
78694;SHT31;68029;51.978;5.646;2023-07-31T09:06:16;18.6;84.7
78694;SHT31;68029;51.978;5.646;2023-07-31T09:08:47;18.6;84.3
78694;SHT31;68029;51.978;5.646;2023-07-31T09:11:16;18.6;84.2
78694;SHT31;68029;51.978;5.646;2023-07-31T09:13:46;18.6;84.3
78694;SHT31;68029;51.978;5.646;2023-07-31T09:16:14;18.7;84.5
78694;SHT31;68029;51.978;5.646;2023-07-31T09:18:56;18.7;84.3
78694;SHT31;68029;51.978;5.646;2023-07-31T09:21:29;18.7;84.2
78694;SHT31;68029;51.978;5.646;2023-07-31T09:24:00;18.7;84.3
78694;SHT31;68029;51.978;5.646;2023-07-31T09:26:34;18.7;84.1
78694;SHT31;68029;51.978;5.646;2023-07-31T09:29:05;18.7;84.0
78694;SHT31;68029;51.978;5.646;2023-07-31T09:31:39;18.7;84.0
78694;SHT31;68029;51.978;5.646;2023-07-31T09:34:09;18.8;83.7
78694;SHT31;68029;51.978;5.646;2023-07-31T09:36:46;18.8;83.4
78694;SHT31;68029;51.978;5.646;2023-07-31T09:39:16;18.8;83.6
78694;SHT31;68029;51.978;5.646;2023-07-31T09:41:53;18.8;83.7
78694;SHT31;68029;51.978;5.646;2023-07-31T09:44:21;18.9;83.6
78694;SHT31;68029;51.978;5.646;2023-07-31T09:46:50;18.9;84.1
78694;SHT31;68029;51.978;5.646;2023-07-31T09:49:18;18.9;84.0
78694;SHT31;68029;51.978;5.646;2023-07-31T09:51:47;19.0;84.0
78694;SHT31;68029;51.978;5.646;2023-07-31T09:54:16;19.0;83.3
78694;SHT31;68029;51.978;5.646;2023-07-31T09:56:48;19.1;83.2
78694;SHT31;68029;51.978;5.646;2023-07-31T09:59:19;19.1;82.6
78694;SHT31;68029;51.978;5.646;2023-07-31T10:01:49;19.1;82.6
78694;SHT31;68029;51.978;5.646;2023-07-31T10:04:26;19.2;81.9
78694;SHT31;68029;51.978;5.646;2023-07-31T10:06:58;19.2;81.8
78694;SHT31;68029;51.978;5.646;2023-07-31T10:09:31;19.2;82.1
78694;SHT31;68029;51.978;5.646;2023-07-31T10:12:08;19.2;82.1
78694;SHT31;68029;51.978;5.646;2023-07-31T10:17:32;19.6;79.9
78694;SHT31;68029;51.978;5.646;2023-07-31T10:22:34;19.6;80.6
78694;SHT31;68029;51.978;5.646;2023-07-31T10:25:04;19.7;80.5
78694;SHT31;68029;51.978;5.646;2023-07-31T10:27:35;19.7;80.5
78694;SHT31;68029;51.978;5.646;2023-07-31T10:30:06;19.7;80.8
78694;SHT31;68029;51.978;5.646;2023-07-31T10:32:38;19.7;80.5
78694;SHT31;68029;51.978;5.646;2023-07-31T10:35:09;19.7;80.8
78694;SHT31;68029;51.978;5.646;2023-07-31T10:37:40;19.7;80.6
78694;SHT31;68029;51.978;5.646;2023-07-31T10:40:13;19.7;80.4
78694;SHT31;68029;51.978;5.646;2023-07-31T10:42:51;19.7;80.0
78694;SHT31;68029;51.978;5.646;2023-07-31T10:45:33;19.7;80.6
78694;SHT31;68029;51.978;5.646;2023-07-31T10:48:05;19.7;80.6
78694;SHT31;68029;51.978;5.646;2023-07-31T10:50:37;19.7;81.2
78694;SHT31;68029;51.978;5.646;2023-07-31T10:53:21;19.7;81.2
78694;SHT31;68029;51.978;5.646;2023-07-31T10:55:49;19.7;80.9
78694;SHT31;68029;51.978;5.646;2023-07-31T10:58:22;19.7;81.1
78694;SHT31;68029;51.978;5.646;2023-07-31T11:00:55;19.8;81.7
78694;SHT31;68029;51.978;5.646;2023-07-31T11:03:43;19.8;80.9
78694;SHT31;68029;51.978;5.646;2023-07-31T11:06:13;19.8;81.7
78694;SHT31;68029;51.978;5.646;2023-07-31T11:08:46;19.8;81.6
78694;SHT31;68029;51.978;5.646;2023-07-31T11:11:17;19.8;81.4
78694;SHT31;68029;51.978;5.646;2023-07-31T11:13:48;19.8;81.5
78694;SHT31;68029;51.978;5.646;2023-07-31T11:16:18;20.1;80.0
78694;SHT31;68029;51.978;5.646;2023-07-31T11:18:48;20.1;80.1
78694;SHT31;68029;51.978;5.646;2023-07-31T11:21:20;20.1;80.2
78694;SHT31;68029;51.978;5.646;2023-07-31T11:23:51;20.1;79.9
78694;SHT31;68029;51.978;5.646;2023-07-31T11:26:20;20.1;80.7
78694;SHT31;68029;51.978;5.646;2023-07-31T11:28:49;20.1;80.3
78694;SHT31;68029;51.978;5.646;2023-07-31T11:31:18;20.1;80.3
78694;SHT31;68029;51.978;5.646;2023-07-31T11:33:50;20.1;80.4
78694;SHT31;68029;51.978;5.646;2023-07-31T11:36:20;20.1;80.0
78694;SHT31;68029;51.978;5.646;2023-07-31T11:38:49;20.1;80.1
78694;SHT31;68029;51.978;5.646;2023-07-31T11:41:17;20.1;79.8
78694;SHT31;68029;51.978;5.646;2023-07-31T11:43:46;20.1;80.1
78694;SHT31;68029;51.978;5.646;2023-07-31T11:46:15;20.1;80.2
78694;SHT31;68029;51.978;5.646;2023-07-31T11:48:46;20.1;80.9
78694;SHT31;68029;51.978;5.646;2023-07-31T11:51:15;20.1;80.2
78694;SHT31;68029;51.978;5.646;2023-07-31T11:53:49;20.1;81.0
78694;SHT31;68029;51.978;5.646;2023-07-31T11:56:21;20.1;80.2
78694;SHT31;68029;51.978;5.646;2023-07-31T11:58:53;20.2;80.1
78694;SHT31;68029;51.978;5.646;2023-07-31T12:01:24;20.2;79.8
78694;SHT31;68029;51.978;5.646;2023-07-31T12:03:54;20.2;79.6
78694;SHT31;68029;51.978;5.646;2023-07-31T12:06:36;20.2;79.9
78694;SHT31;68029;51.978;5.646;2023-07-31T12:09:06;20.3;79.9
78694;SHT31;68029;51.978;5.646;2023-07-31T12:11:44;20.3;79.1
78694;SHT31;68029;51.978;5.646;2023-07-31T12:14:22;20.4;79.1
78694;SHT31;68029;51.978;5.646;2023-07-31T12:16:55;20.4;79.2
78694;SHT31;68029;51.978;5.646;2023-07-31T12:19:25;20.4;79.6
78694;SHT31;68029;51.978;5.646;2023-07-31T12:21:57;20.5;79.4
78694;SHT31;68029;51.978;5.646;2023-07-31T12:24:26;20.5;80.2
78694;SHT31;68029;51.978;5.646;2023-07-31T12:26:55;20.6;79.7
78694;SHT31;68029;51.978;5.646;2023-07-31T12:29:35;20.6;78.4
78694;SHT31;68029;51.978;5.646;2023-07-31T12:32:04;20.6;77.8
78694;SHT31;68029;51.978;5.646;2023-07-31T12:34:43;20.7;77.7
78694;SHT31;68029;51.978;5.646;2023-07-31T12:37:12;20.6;77.8
78694;SHT31;68029;51.978;5.646;2023-07-31T12:39:41;20.6;78.8
78694;SHT31;68029;51.978;5.646;2023-07-31T12:42:10;20.9;77.0
78694;SHT31;68029;51.978;5.646;2023-07-31T12:44:38;20.9;78.0
78694;SHT31;68029;51.978;5.646;2023-07-31T12:47:07;20.9;78.6
78694;SHT31;68029;51.978;5.646;2023-07-31T12:49:36;20.9;77.6
78694;SHT31;68029;51.978;5.646;2023-07-31T12:52:05;21.0;77.1
78694;SHT31;68029;51.978;5.646;2023-07-31T12:54:34;20.9;78.6
78694;SHT31;68029;51.978;5.646;2023-07-31T12:57:04;20.9;77.8
78694;SHT31;68029;51.978;5.646;2023-07-31T12:59:33;20.9;78.2
78694;SHT31;68029;51.978;5.646;2023-07-31T13:02:01;20.9;78.2
78694;SHT31;68029;51.978;5.646;2023-07-31T13:04:30;20.9;77.7
78694;SHT31;68029;51.978;5.646;2023-07-31T13:06:58;20.9;78.1
78694;SHT31;68029;51.978;5.646;2023-07-31T13:09:27;20.9;77.9
78694;SHT31;68029;51.978;5.646;2023-07-31T13:11:55;20.9;77.7
78694;SHT31;68029;51.978;5.646;2023-07-31T13:14:24;20.8;77.5
78694;SHT31;68029;51.978;5.646;2023-07-31T13:16:53;20.8;77.4
78694;SHT31;68029;51.978;5.646;2023-07-31T13:19:21;20.8;78.1
78694;SHT31;68029;51.978;5.646;2023-07-31T13:21:49;20.8;77.4
78694;SHT31;68029;51.978;5.646;2023-07-31T13:24:19;20.7;77.1
78694;SHT31;68029;51.978;5.646;2023-07-31T13:26:47;20.7;77.7
78694;SHT31;68029;51.978;5.646;2023-07-31T13:29:16;20.7;77.7
78694;SHT31;68029;51.978;5.646;2023-07-31T13:31:46;20.7;77.9
78694;SHT31;68029;51.978;5.646;2023-07-31T13:34:14;20.7;78.6
78694;SHT31;68029;51.978;5.646;2023-07-31T13:36:43;20.7;78.4
78694;SHT31;68029;51.978;5.646;2023-07-31T13:39:12;20.7;78.7
78694;SHT31;68029;51.978;5.646;2023-07-31T13:41:41;20.6;78.7
78694;SHT31;68029;51.978;5.646;2023-07-31T13:44:09;20.6;78.6
78694;SHT31;68029;51.978;5.646;2023-07-31T13:46:38;20.6;78.8
78694;SHT31;68029;51.978;5.646;2023-07-31T13:49:07;20.5;79.3
78694;SHT31;68029;51.978;5.646;2023-07-31T13:51:36;20.5;80.2
78694;SHT31;68029;51.978;5.646;2023-07-31T13:54:06;20.4;79.9
78694;SHT31;68029;51.978;5.646;2023-07-31T13:56:35;20.4;79.9
78694;SHT31;68029;51.978;5.646;2023-07-31T13:59:04;20.4;80.0
78694;SHT31;68029;51.978;5.646;2023-07-31T14:01:32;20.3;80.4
78694;SHT31;68029;51.978;5.646;2023-07-31T14:04:01;20.3;80.7
78694;SHT31;68029;51.978;5.646;2023-07-31T14:06:30;20.3;80.9
78694;SHT31;68029;51.978;5.646;2023-07-31T14:08:58;20.2;80.8
78694;SHT31;68029;51.978;5.646;2023-07-31T14:11:27;20.2;81.0
78694;SHT31;68029;51.978;5.646;2023-07-31T14:13:55;20.2;81.4
78694;SHT31;68029;51.978;5.646;2023-07-31T14:16:24;20.2;81.2
78694;SHT31;68029;51.978;5.646;2023-07-31T14:18:53;20.2;81.2
78694;SHT31;68029;51.978;5.646;2023-07-31T14:21:23;20.2;81.6
78694;SHT31;68029;51.978;5.646;2023-07-31T14:23:52;20.2;81.2
78694;SHT31;68029;51.978;5.646;2023-07-31T14:26:23;20.2;80.8
78694;SHT31;68029;51.978;5.646;2023-07-31T14:28:51;20.2;81.5
78694;SHT31;68029;51.978;5.646;2023-07-31T14:31:20;20.2;81.4
78694;SHT31;68029;51.978;5.646;2023-07-31T14:33:49;20.2;81.9
78694;SHT31;68029;51.978;5.646;2023-07-31T14:36:18;20.2;81.4
78694;SHT31;68029;51.978;5.646;2023-07-31T14:38:46;20.2;81.5
78694;SHT31;68029;51.978;5.646;2023-07-31T14:41:15;20.2;81.1
78694;SHT31;68029;51.978;5.646;2023-07-31T14:43:43;20.2;81.4
78694;SHT31;68029;51.978;5.646;2023-07-31T14:46:12;20.1;81.4
78694;SHT31;68029;51.978;5.646;2023-07-31T14:48:41;20.1;80.9
78694;SHT31;68029;51.978;5.646;2023-07-31T14:51:09;20.1;81.5
78694;SHT31;68029;51.978;5.646;2023-07-31T14:53:39;20.1;81.6
78694;SHT31;68029;51.978;5.646;2023-07-31T14:56:07;20.1;81.7
78694;SHT31;68029;51.978;5.646;2023-07-31T14:58:36;20.1;81.3
78694;SHT31;68029;51.978;5.646;2023-07-31T15:01:04;20.1;81.6
78694;SHT31;68029;51.978;5.646;2023-07-31T15:03:33;20.1;81.5
78694;SHT31;68029;51.978;5.646;2023-07-31T15:06:01;20.1;81.7
78694;SHT31;68029;51.978;5.646;2023-07-31T15:08:31;20.1;81.5
78694;SHT31;68029;51.978;5.646;2023-07-31T15:11:00;20.1;81.0
78694;SHT31;68029;51.978;5.646;2023-07-31T15:13:30;20.1;81.4
78694;SHT31;68029;51.978;5.646;2023-07-31T15:15:59;20.1;81.0
78694;SHT31;68029;51.978;5.646;2023-07-31T15:18:28;20.1;81.3
78694;SHT31;68029;51.978;5.646;2023-07-31T15:20:56;20.1;81.0
78694;SHT31;68029;51.978;5.646;2023-07-31T15:23:25;20.1;80.8
78694;SHT31;68029;51.978;5.646;2023-07-31T15:25:54;20.1;81.3
78694;SHT31;68029;51.978;5.646;2023-07-31T15:28:22;20.0;81.2
78694;SHT31;68029;51.978;5.646;2023-07-31T15:30:51;20.0;81.7
78694;SHT31;68029;51.978;5.646;2023-07-31T15:33:21;20.0;81.7
78694;SHT31;68029;51.978;5.646;2023-07-31T15:35:50;20.0;81.6
78694;SHT31;68029;51.978;5.646;2023-07-31T15:38:22;20.0;81.8
78694;SHT31;68029;51.978;5.646;2023-07-31T15:40:50;20.1;81.6
78694;SHT31;68029;51.978;5.646;2023-07-31T15:43:19;20.0;81.1
78694;SHT31;68029;51.978;5.646;2023-07-31T15:45:49;20.0;81.5
78694;SHT31;68029;51.978;5.646;2023-07-31T15:48:17;20.0;81.6
78694;SHT31;68029;51.978;5.646;2023-07-31T15:50:46;20.0;81.7
78694;SHT31;68029;51.978;5.646;2023-07-31T15:53:15;20.0;82.0
78694;SHT31;68029;51.978;5.646;2023-07-31T15:55:43;19.9;82.2
78694;SHT31;68029;51.978;5.646;2023-07-31T15:58:12;19.9;82.2
78694;SHT31;68029;51.978;5.646;2023-07-31T16:00:40;19.9;82.4
78694;SHT31;68029;51.978;5.646;2023-07-31T16:03:09;19.9;82.5
78694;SHT31;68029;51.978;5.646;2023-07-31T16:05:37;19.9;82.6
78694;SHT31;68029;51.978;5.646;2023-07-31T16:08:07;19.8;82.5
78694;SHT31;68029;51.978;5.646;2023-07-31T16:10:35;19.8;82.7
78694;SHT31;68029;51.978;5.646;2023-07-31T16:13:04;19.7;83.2
78694;SHT31;68029;51.978;5.646;2023-07-31T16:15:34;19.6;83.6
78694;SHT31;68029;51.978;5.646;2023-07-31T16:18:03;19.6;83.5
78694;SHT31;68029;51.978;5.646;2023-07-31T16:20:32;19.5;83.9
78694;SHT31;68029;51.978;5.646;2023-07-31T16:23:00;19.4;84.4
78694;SHT31;68029;51.978;5.646;2023-07-31T16:25:31;19.4;84.3